createdAt,value
2024-05-09T00:00:12.741Z,80.38
2024-05-09T00:01:09.360Z,80.53
2024-05-09T00:02:08.376Z,80.74
2024-05-09T00:03:09.859Z,81.00
2024-05-09T00:04:08.360Z,81.79
2024-05-09T00:05:08.474Z,82.51
2024-05-09T00:06:08.465Z,81.60
2024-05-09T00:07:08.319Z,81.67
2024-05-09T00:08:08.453Z,79.73
2024-05-09T00:09:08.330Z,79.62
2024-05-09T00:10:14.592Z,80.69
2024-05-09T00:11:09.390Z,80.81
2024-05-09T00:12:08.581Z,80.86
2024-05-09T00:13:08.713Z,81.04
2024-05-09T00:14:08.380Z,80.58
2024-05-09T00:15:08.352Z,81.04
2024-05-09T00:16:08.361Z,80.27
2024-05-09T00:17:08.379Z,78.84
2024-05-09T00:18:08.761Z,79.32
2024-05-09T00:19:08.432Z,77.80
2024-05-09T00:20:14.435Z,77.59
2024-05-09T00:21:09.593Z,77.73
2024-05-09T00:22:08.362Z,78.14
2024-05-09T00:23:08.859Z,78.09
2024-05-09T00:24:08.358Z,78.78
2024-05-09T00:25:08.376Z,80.52
2024-05-09T00:26:08.405Z,78.11
2024-05-09T00:27:09.056Z,79.19
2024-05-09T00:28:08.355Z,75.98
2024-05-09T00:29:08.418Z,77.69
2024-05-09T00:30:11.678Z,78.46
2024-05-09T00:31:09.391Z,78.56
2024-05-09T00:32:08.460Z,78.47
2024-05-09T00:33:09.893Z,78.04
2024-05-09T00:34:08.871Z,79.53
2024-05-09T00:35:08.679Z,77.68
2024-05-09T00:36:08.640Z,77.84
2024-05-09T00:37:08.705Z,77.39
2024-05-09T00:38:08.814Z,78.74
2024-05-09T00:39:08.795Z,75.41
2024-05-09T00:40:15.365Z,75.09
2024-05-09T00:41:09.947Z,75.26
2024-05-09T00:42:08.857Z,75.27
2024-05-09T00:43:08.935Z,75.62
2024-05-09T00:44:08.933Z,76.11
2024-05-09T00:45:08.868Z,74.60
2024-05-09T00:46:08.896Z,75.82
2024-05-09T00:47:09.024Z,76.25
2024-05-09T00:48:10.051Z,71.24
2024-05-09T00:49:08.993Z,74.03
2024-05-09T00:50:12.920Z,74.54
2024-05-09T00:51:09.994Z,74.57
2024-05-09T00:52:08.963Z,73.41
2024-05-09T00:53:08.979Z,74.84
2024-05-09T00:54:08.903Z,74.14
2024-05-09T00:55:08.904Z,75.44
2024-05-09T00:56:08.932Z,72.50
2024-05-09T00:57:08.899Z,75.46
2024-05-09T00:58:08.979Z,76.00
2024-05-09T00:59:08.936Z,73.06
2024-05-09T01:00:22.150Z,73.35
2024-05-09T01:01:10.003Z,73.39
2024-05-09T01:02:09.043Z,71.46
2024-05-09T01:03:10.848Z,69.03
2024-05-09T01:04:09.229Z,73.43
2024-05-09T01:05:09.029Z,73.43
2024-05-09T01:06:08.929Z,71.88
2024-05-09T01:07:08.934Z,73.27
2024-05-09T01:08:09.441Z,68.74
2024-05-09T01:09:08.945Z,67.98
2024-05-09T01:10:14.253Z,67.08
2024-05-09T01:11:10.015Z,67.22
2024-05-09T01:12:09.107Z,67.29
2024-05-09T01:13:08.939Z,67.25
2024-05-09T01:14:09.008Z,65.73
2024-05-09T01:15:08.950Z,67.33
2024-05-09T01:16:09.438Z,63.29
2024-05-09T01:17:09.054Z,68.79
2024-05-09T01:18:09.093Z,63.72
2024-05-09T01:19:09.072Z,64.62
2024-05-09T01:20:10.980Z,64.73
2024-05-09T01:21:10.156Z,64.75
2024-05-09T01:22:08.999Z,64.94
2024-05-09T01:23:09.389Z,64.73
2024-05-09T01:24:08.983Z,65.07
2024-05-09T01:25:08.982Z,63.90
2024-05-09T01:26:09.010Z,63.31
2024-05-09T01:27:08.998Z,63.18
2024-05-09T01:28:08.985Z,65.17
2024-05-09T01:29:09.094Z,65.07
2024-05-09T01:30:11.981Z,62.52
2024-05-09T01:31:10.012Z,62.58
2024-05-09T01:32:09.109Z,62.61
2024-05-09T01:33:10.823Z,63.04
2024-05-09T01:34:09.128Z,63.03
2024-05-09T01:35:09.085Z,62.79
2024-05-09T01:36:09.032Z,63.23
2024-05-09T01:37:09.026Z,61.25
2024-05-09T01:38:09.072Z,59.75
2024-05-09T01:39:09.034Z,59.46
2024-05-09T01:40:12.356Z,58.55
2024-05-09T01:41:10.058Z,58.65
2024-05-09T01:42:09.030Z,59.17
2024-05-09T01:43:10.205Z,59.80
2024-05-09T01:44:09.059Z,59.00
2024-05-09T01:45:09.035Z,58.37
2024-05-09T01:46:09.032Z,58.21
2024-05-09T01:47:09.104Z,58.29
2024-05-09T01:48:09.491Z,57.19
2024-05-09T01:49:09.218Z,56.88
2024-05-09T01:50:11.004Z,54.88
2024-05-09T01:51:09.292Z,55.44
2024-05-09T01:52:09.209Z,56.06
2024-05-09T01:53:09.667Z,57.26
2024-05-09T01:54:09.337Z,55.55
2024-05-09T01:55:09.380Z,54.01
2024-05-09T01:56:09.480Z,53.10
2024-05-09T01:57:09.503Z,55.56
2024-05-09T01:58:09.870Z,54.47
2024-05-09T01:59:09.637Z,53.85
2024-05-09T02:00:10.428Z,52.42
2024-05-09T02:01:09.752Z,53.82
2024-05-09T02:02:09.964Z,54.02
2024-05-09T02:03:10.700Z,52.50
2024-05-09T02:04:10.274Z,51.98
2024-05-09T02:05:10.318Z,54.22
2024-05-09T02:06:10.286Z,55.53
2024-05-09T02:07:10.204Z,53.69
2024-05-09T02:08:10.279Z,54.87
2024-05-09T02:09:10.305Z,53.68
2024-05-09T02:10:16.510Z,53.30
2024-05-09T02:11:11.479Z,53.34
2024-05-09T02:12:10.638Z,53.64
2024-05-09T02:13:10.376Z,53.74
2024-05-09T02:14:10.474Z,52.72
2024-05-09T02:15:10.375Z,51.81
2024-05-09T02:16:10.385Z,51.89
2024-05-09T02:17:10.473Z,51.95
2024-05-09T02:18:11.233Z,50.74
2024-05-09T02:19:10.591Z,50.74
2024-05-09T02:20:16.131Z,52.75
2024-05-09T02:21:11.451Z,52.77
2024-05-09T02:22:10.396Z,52.80
2024-05-09T02:23:10.494Z,51.13
2024-05-09T02:24:10.393Z,51.59
2024-05-09T02:25:10.397Z,51.60
2024-05-09T02:26:10.444Z,51.25
2024-05-09T02:27:10.427Z,51.84
2024-05-09T02:28:10.406Z,52.13
2024-05-09T02:29:10.485Z,50.74
2024-05-09T02:30:18.735Z,51.88
2024-05-09T02:31:11.428Z,51.94
2024-05-09T02:32:10.469Z,51.93
2024-05-09T02:33:12.534Z,51.46
2024-05-09T02:34:10.565Z,51.89
2024-05-09T02:35:10.454Z,51.51
2024-05-09T02:36:10.415Z,50.72
2024-05-09T02:37:10.420Z,50.22
2024-05-09T02:38:10.830Z,48.65
2024-05-09T02:39:10.416Z,52.32
2024-05-09T02:40:14.709Z,51.30
2024-05-09T02:41:11.510Z,51.46
2024-05-09T02:42:10.422Z,51.74
2024-05-09T02:43:11.493Z,52.07
2024-05-09T02:44:10.467Z,52.39
2024-05-09T02:45:10.427Z,52.49
2024-05-09T02:46:10.424Z,52.86
2024-05-09T02:47:10.463Z,51.47
2024-05-09T02:48:10.652Z,52.70
2024-05-09T02:49:10.623Z,53.32
2024-05-09T02:50:13.343Z,52.58
2024-05-09T02:51:11.704Z,52.67
2024-05-09T02:52:10.451Z,52.67
2024-05-09T02:53:10.499Z,52.71
2024-05-09T02:54:10.455Z,51.68
2024-05-09T02:55:10.459Z,50.81
2024-05-09T02:56:10.513Z,51.87
2024-05-09T02:57:10.456Z,51.39
2024-05-09T02:58:10.789Z,52.25
2024-05-09T02:59:10.497Z,50.50
2024-05-09T03:00:18.436Z,51.96
2024-05-09T03:01:11.570Z,52.05
2024-05-09T03:02:10.625Z,52.01
2024-05-09T03:03:12.883Z,53.18
2024-05-09T03:04:10.623Z,52.03
2024-05-09T03:05:10.517Z,52.53
2024-05-09T03:06:10.486Z,51.81
2024-05-09T03:07:10.482Z,53.43
2024-05-09T03:08:10.680Z,53.04
2024-05-09T03:09:10.500Z,53.94
2024-05-09T03:10:18.305Z,51.50
2024-05-09T03:11:11.670Z,51.61
2024-05-09T03:12:10.658Z,52.10
2024-05-09T03:13:10.494Z,51.84
2024-05-09T03:14:10.582Z,53.22
2024-05-09T03:15:10.497Z,51.87
2024-05-09T03:16:10.507Z,51.78
2024-05-09T03:17:10.615Z,51.49
2024-05-09T03:18:10.868Z,52.84
2024-05-09T03:19:10.877Z,51.25
2024-05-09T03:20:17.548Z,51.90
2024-05-09T03:21:11.636Z,51.94
2024-05-09T03:22:10.544Z,51.37
2024-05-09T03:23:10.708Z,50.53
2024-05-09T03:24:10.555Z,50.42
2024-05-09T03:25:10.548Z,49.02
2024-05-09T03:26:10.597Z,51.33
2024-05-09T03:27:10.567Z,51.94
2024-05-09T03:28:10.560Z,51.86
2024-05-09T03:29:10.740Z,53.06
2024-05-09T03:30:15.462Z,53.18
2024-05-09T03:31:11.599Z,53.26
2024-05-09T03:32:10.721Z,53.50
2024-05-09T03:33:11.062Z,54.12
2024-05-09T03:34:10.618Z,54.75
2024-05-09T03:35:10.676Z,55.26
2024-05-09T03:36:11.377Z,52.95
2024-05-09T03:37:10.616Z,56.32
2024-05-09T03:38:10.782Z,54.00
2024-05-09T03:39:10.610Z,56.77
2024-05-09T03:40:17.670Z,55.25
2024-05-09T03:41:11.685Z,55.37
2024-05-09T03:42:10.637Z,55.67
2024-05-09T03:43:10.631Z,55.35
2024-05-09T03:44:10.647Z,56.36
2024-05-09T03:45:10.630Z,55.08
2024-05-09T03:46:10.648Z,54.54
2024-05-09T03:47:10.648Z,55.18
2024-05-09T03:48:11.070Z,56.92
2024-05-09T03:49:10.834Z,55.38
2024-05-09T03:50:18.200Z,54.05
2024-05-09T03:51:11.836Z,54.13
2024-05-09T03:52:11.024Z,54.26
2024-05-09T03:53:10.822Z,54.08
2024-05-09T03:54:10.686Z,54.29
2024-05-09T03:55:10.681Z,56.33
2024-05-09T03:56:10.769Z,52.57
2024-05-09T03:57:10.684Z,53.85
2024-05-09T03:58:10.696Z,55.04
2024-05-09T03:59:10.854Z,54.89
2024-05-09T04:00:17.840Z,56.07
2024-05-09T04:01:11.815Z,56.13
2024-05-09T04:02:10.839Z,56.46
2024-05-09T04:03:12.473Z,56.79
2024-05-09T04:04:11.070Z,57.32
2024-05-09T04:05:11.011Z,58.21
2024-05-09T04:06:11.050Z,59.02
2024-05-09T04:07:11.121Z,58.93
2024-05-09T04:08:11.576Z,60.09
2024-05-09T04:09:11.245Z,59.10
2024-05-09T04:10:20.657Z,60.21
2024-05-09T04:11:12.513Z,60.27
2024-05-09T04:12:11.428Z,60.57
2024-05-09T04:13:11.366Z,60.69
2024-05-09T04:14:11.346Z,59.78
2024-05-09T04:15:13.254Z,60.23
2024-05-09T04:16:11.308Z,59.15
2024-05-09T04:17:11.574Z,60.73
2024-05-09T04:18:11.429Z,60.76
2024-05-09T04:19:11.506Z,61.08
2024-05-09T04:20:21.106Z,62.51
2024-05-09T04:21:12.601Z,62.55
2024-05-09T04:22:11.458Z,62.54
2024-05-09T04:23:11.800Z,62.55
2024-05-09T04:24:11.451Z,63.28
2024-05-09T04:25:11.452Z,61.99
2024-05-09T04:26:11.476Z,63.44
2024-05-09T04:27:11.497Z,63.03
2024-05-09T04:28:11.456Z,62.96
2024-05-09T04:29:11.503Z,62.44
2024-05-09T04:30:18.924Z,62.43
2024-05-09T04:31:12.470Z,62.53
2024-05-09T04:32:11.513Z,61.74
2024-05-09T04:33:13.417Z,62.52
2024-05-09T04:34:11.582Z,61.28
2024-05-09T04:35:11.554Z,63.06
2024-05-09T04:36:11.467Z,61.93
2024-05-09T04:37:11.474Z,62.67
2024-05-09T04:38:19.323Z,50.00
2024-05-09T04:39:19.379Z,50.00
2024-05-09T04:40:28.094Z,50.00
2024-05-09T04:41:20.631Z,50.00
2024-05-09T04:42:19.512Z,50.00
2024-05-09T04:43:19.627Z,50.00
2024-05-09T04:44:19.566Z,50.00
2024-05-09T04:45:19.514Z,50.00
2024-05-09T04:46:19.517Z,48.96
2024-05-09T04:47:19.764Z,51.18
2024-05-09T04:48:19.683Z,50.26
2024-05-09T04:49:19.732Z,51.78
2024-05-09T04:50:29.312Z,51.29
2024-05-09T04:51:20.545Z,51.31
2024-05-09T04:52:19.532Z,51.41
2024-05-09T04:53:19.696Z,48.07
2024-05-09T04:55:19.544Z,50.93
2024-05-09T04:56:19.574Z,51.44
2024-05-09T04:57:19.561Z,50.47
2024-05-09T04:58:19.555Z,52.40
2024-05-09T04:59:19.582Z,52.49
2024-05-09T05:00:28.588Z,52.96
2024-05-09T05:01:20.592Z,53.04
2024-05-09T05:02:19.716Z,53.01
2024-05-09T05:03:19.776Z,51.88
2024-05-09T05:04:19.625Z,50.49
2024-05-09T05:05:19.714Z,50.41
2024-05-09T05:06:19.565Z,50.00
2024-05-09T05:07:19.587Z,52.55
2024-05-09T05:08:19.874Z,50.43
2024-05-09T05:09:19.566Z,52.24
2024-05-09T05:10:25.451Z,51.01
2024-05-09T05:11:20.631Z,51.15
2024-05-09T05:12:19.752Z,51.67
2024-05-09T05:13:21.037Z,51.37
2024-05-09T05:14:19.871Z,53.05
2024-05-09T05:15:19.869Z,52.04
2024-05-09T05:16:19.918Z,55.10
2024-05-09T05:17:20.049Z,54.33
2024-05-09T05:18:20.325Z,53.98
2024-05-09T05:19:20.120Z,51.67
2024-05-09T05:20:27.427Z,51.97
2024-05-09T05:21:21.331Z,52.03
2024-05-09T05:22:20.165Z,52.42
2024-05-09T05:23:20.347Z,52.42
2024-05-09T05:24:20.152Z,52.70
2024-05-09T05:25:20.149Z,52.78
2024-05-09T05:26:20.244Z,53.70
2024-05-09T05:27:20.171Z,52.09
2024-05-09T05:28:20.150Z,51.50
2024-05-09T05:29:20.910Z,52.02
2024-05-09T05:30:25.235Z,53.53
2024-05-09T05:31:21.227Z,53.63
2024-05-09T05:32:20.314Z,53.76
2024-05-09T05:33:20.796Z,54.06
2024-05-09T05:34:20.171Z,55.06
2024-05-09T05:35:20.224Z,54.46
2024-05-09T05:36:20.173Z,51.95
2024-05-09T05:37:20.177Z,53.92
2024-05-09T05:38:22.835Z,52.29
2024-05-09T05:39:20.185Z,52.33
2024-05-09T05:40:28.194Z,52.74
2024-05-09T05:41:21.213Z,52.47
2024-05-09T05:42:20.193Z,52.76
2024-05-09T05:43:20.185Z,52.98
2024-05-09T05:44:20.225Z,52.82
2024-05-09T05:45:20.177Z,54.12
2024-05-09T05:46:20.174Z,54.42
2024-05-09T05:47:20.253Z,53.06
2024-05-09T05:48:20.305Z,54.44
2024-05-09T05:49:20.336Z,55.21
2024-05-09T05:50:27.504Z,53.10
2024-05-09T05:51:21.319Z,53.17
2024-05-09T05:52:20.185Z,53.27
2024-05-09T05:53:20.244Z,53.00
2024-05-09T05:54:20.189Z,53.71
2024-05-09T05:55:20.198Z,53.10
2024-05-09T05:56:20.307Z,52.73
2024-05-09T05:57:20.196Z,53.68
2024-05-09T05:58:20.219Z,52.07
2024-05-09T05:59:20.253Z,51.91
2024-05-09T06:00:29.257Z,52.52
2024-05-09T06:01:21.261Z,52.58
2024-05-09T06:02:20.267Z,52.88
2024-05-09T06:03:20.287Z,51.35
2024-05-09T06:04:20.241Z,53.45
2024-05-09T06:05:20.235Z,51.36
2024-05-09T06:06:20.215Z,52.48
2024-05-09T06:07:20.220Z,54.13
2024-05-09T06:08:20.334Z,52.19
2024-05-09T06:09:20.223Z,52.44
2024-05-09T06:10:25.484Z,52.31
2024-05-09T06:11:21.331Z,52.43
2024-05-09T06:12:20.332Z,52.59
2024-05-09T06:13:20.252Z,52.61
2024-05-09T06:14:20.274Z,53.10
2024-05-09T06:15:20.232Z,53.27
2024-05-09T06:16:20.235Z,52.20
2024-05-09T06:17:20.330Z,55.71
2024-05-09T06:18:20.495Z,52.00
2024-05-09T06:19:20.505Z,51.03
2024-05-09T06:20:27.131Z,52.18
2024-05-09T06:21:21.247Z,52.28
2024-05-09T06:22:20.311Z,52.29
2024-05-09T06:23:20.275Z,50.01
2024-05-09T06:24:20.247Z,52.08
2024-05-09T06:25:20.241Z,51.44
2024-05-09T06:26:20.290Z,50.79
2024-05-09T06:27:20.262Z,51.51
2024-05-09T06:28:20.261Z,53.52
2024-05-09T06:29:20.271Z,52.92
2024-05-09T06:30:29.538Z,52.39
2024-05-09T06:31:21.273Z,52.52
2024-05-09T06:32:20.352Z,52.85
2024-05-09T06:33:20.402Z,53.93
2024-05-09T06:34:20.499Z,53.73
2024-05-09T06:35:20.275Z,58.13
2024-05-09T06:36:20.263Z,56.34
2024-05-09T06:37:20.284Z,58.26
2024-05-09T06:38:20.420Z,56.94
2024-05-09T06:39:20.267Z,55.99
2024-05-09T06:40:25.717Z,56.97
2024-05-09T06:41:21.322Z,57.18
2024-05-09T06:42:20.273Z,57.84
2024-05-09T06:43:20.305Z,58.94
2024-05-09T06:44:20.343Z,59.45
2024-05-09T06:45:20.280Z,62.86
2024-05-09T06:46:20.277Z,62.36
2024-05-09T06:47:20.382Z,63.34
2024-05-09T06:48:20.752Z,61.28
2024-05-09T06:49:20.461Z,64.18
2024-05-09T06:50:24.164Z,63.32
2024-05-09T06:51:21.377Z,63.37
2024-05-09T06:52:20.281Z,63.06
2024-05-09T06:53:20.402Z,63.99
2024-05-09T06:54:20.283Z,63.76
2024-05-09T06:55:20.291Z,63.66
2024-05-09T06:56:20.327Z,62.60
2024-05-09T06:57:20.288Z,62.34
2024-05-09T06:58:20.299Z,63.46
2024-05-09T06:59:20.325Z,64.22
2024-05-09T07:00:27.708Z,62.16
2024-05-09T07:01:21.337Z,62.19
2024-05-09T07:02:20.393Z,62.42
2024-05-09T07:03:20.465Z,62.44
2024-05-09T07:04:20.354Z,60.68
2024-05-09T07:05:20.447Z,61.87
2024-05-09T07:06:20.310Z,61.61
2024-05-09T07:07:20.302Z,61.36
2024-05-09T07:08:20.396Z,62.19
2024-05-09T07:09:20.306Z,58.79
2024-05-09T07:10:28.502Z,59.09
2024-05-09T07:11:21.393Z,59.10
2024-05-09T07:12:20.413Z,58.47
2024-05-09T07:13:20.323Z,56.81
2024-05-09T07:14:20.364Z,55.01
2024-05-09T07:15:20.320Z,56.26
2024-05-09T07:16:20.315Z,56.96
2024-05-09T07:17:20.400Z,59.11
2024-05-09T07:18:20.813Z,60.69
2024-05-09T07:19:20.549Z,60.27
2024-05-09T07:20:31.615Z,62.30
2024-05-09T07:21:21.337Z,62.35
2024-05-09T07:22:20.337Z,62.54
2024-05-09T07:23:20.369Z,62.49
2024-05-09T07:24:20.331Z,62.51
2024-05-09T07:25:20.331Z,63.65
2024-05-09T07:26:20.413Z,61.75
2024-05-09T07:27:20.329Z,64.01
2024-05-09T07:28:20.340Z,62.81
2024-05-09T07:29:20.457Z,62.59
2024-05-09T07:30:27.420Z,62.93
2024-05-09T07:31:21.334Z,62.99
2024-05-09T07:32:20.428Z,63.05
2024-05-09T07:33:22.154Z,62.72
2024-05-09T07:34:20.509Z,62.08
2024-05-09T07:35:20.376Z,63.04
2024-05-09T07:36:20.350Z,62.11
2024-05-09T07:37:20.348Z,60.39
2024-05-09T07:38:20.478Z,58.71
2024-05-09T07:39:20.350Z,57.67
2024-05-09T07:40:28.614Z,60.61
2024-05-09T07:41:21.414Z,60.66
2024-05-09T07:42:20.359Z,60.27
2024-05-09T07:43:20.375Z,60.05
2024-05-09T07:44:20.416Z,60.18
2024-05-09T07:45:40.415Z,58.68
2024-05-09T07:48:31.976Z,60.29
2024-05-09T07:53:30.278Z,60.87
2024-05-09T07:53:38.974Z,60.92
2024-05-09T07:54:21.487Z,60.95
2024-05-09T07:55:20.457Z,62.17
2024-05-09T07:56:22.712Z,62.43
2024-05-09T07:57:20.473Z,60.94
2024-05-09T07:58:20.385Z,61.40
2024-05-09T07:59:20.386Z,61.42
2024-05-09T08:00:27.067Z,61.07
2024-05-09T08:01:21.561Z,60.70
2024-05-09T08:02:20.533Z,60.62
2024-05-09T08:03:20.441Z,58.70
2024-05-09T08:04:21.398Z,58.30
2024-05-09T08:05:20.485Z,56.33
2024-05-09T08:06:20.406Z,55.04
2024-05-09T08:07:20.436Z,51.60
2024-05-09T08:08:20.424Z,51.09
2024-05-09T08:09:21.501Z,51.27
2024-05-09T08:10:24.667Z,50.20
2024-05-09T08:11:21.518Z,50.22
2024-05-09T08:12:20.421Z,49.27
2024-05-09T08:13:20.613Z,46.91
2024-05-09T08:14:20.414Z,47.14
2024-05-09T08:15:20.420Z,48.37
2024-05-09T08:16:20.544Z,51.34
2024-05-09T08:17:20.496Z,52.91
2024-05-09T08:18:20.538Z,52.15
2024-05-09T08:19:20.536Z,51.53
2024-05-09T08:20:30.125Z,50.16
2024-05-09T08:21:21.463Z,50.26
2024-05-09T08:22:20.487Z,50.48
2024-05-09T08:23:20.461Z,49.50
2024-05-09T08:24:20.449Z,48.13
2024-05-09T08:25:20.465Z,46.93
2024-05-09T08:26:20.459Z,51.52
2024-05-09T08:27:20.460Z,50.46
2024-05-09T08:28:20.615Z,53.17
2024-05-09T08:29:20.464Z,51.00
2024-05-09T08:30:25.420Z,50.50
2024-05-09T08:31:21.536Z,50.54
2024-05-09T08:32:20.498Z,49.20
2024-05-09T08:33:20.625Z,50.53
2024-05-09T08:34:20.595Z,50.19
2024-05-09T08:35:20.469Z,51.77
2024-05-09T08:36:20.465Z,51.23
2024-05-09T08:37:23.411Z,53.38
2024-05-09T08:38:21.485Z,53.48
2024-05-09T08:39:20.477Z,53.54
2024-05-09T08:40:30.520Z,54.09
2024-05-09T08:41:21.481Z,53.53
2024-05-09T08:42:20.483Z,53.94
2024-05-09T08:43:20.558Z,54.44
2024-05-09T08:44:20.489Z,56.56
2024-05-09T08:45:20.500Z,56.20
2024-05-09T08:46:20.685Z,58.61
2024-05-09T08:47:20.544Z,55.88
2024-05-09T08:48:20.654Z,55.00
2024-05-09T08:49:20.612Z,55.13
2024-05-09T08:50:31.399Z,56.45
2024-05-09T08:51:21.547Z,56.27
2024-05-09T08:52:20.526Z,56.68
2024-05-09T08:53:20.535Z,56.48
2024-05-09T08:54:20.534Z,56.46
2024-05-09T08:55:20.550Z,57.60
2024-05-09T08:56:20.547Z,57.44
2024-05-09T08:57:20.574Z,56.80
2024-05-09T08:58:20.766Z,56.10
2024-05-09T08:59:20.542Z,55.25
2024-05-09T09:00:29.597Z,53.13
2024-05-09T09:01:21.718Z,53.17
2024-05-09T09:02:20.725Z,53.37
2024-05-09T09:03:20.766Z,52.59
2024-05-09T09:04:20.680Z,50.49
2024-05-09T09:05:20.658Z,50.87
2024-05-09T09:06:20.616Z,52.42
2024-05-09T09:07:20.678Z,51.25
2024-05-09T09:08:20.636Z,54.40
2024-05-09T09:09:20.640Z,50.86
2024-05-09T09:10:29.164Z,51.11
2024-05-09T09:11:21.641Z,51.20
2024-05-09T09:12:20.666Z,51.61
2024-05-09T09:13:20.720Z,50.21
2024-05-09T09:14:20.646Z,48.50
2024-05-09T09:15:20.641Z,48.98
2024-05-09T09:16:20.858Z,53.16
2024-05-09T09:17:20.666Z,54.46
2024-05-09T09:18:20.872Z,53.05
2024-05-09T09:19:20.778Z,51.09
2024-05-09T09:20:28.717Z,50.00
2024-05-09T09:21:21.657Z,50.05
2024-05-09T09:22:20.686Z,50.31
2024-05-09T09:23:20.677Z,46.54
2024-05-09T09:24:20.647Z,43.86
2024-05-09T09:25:20.657Z,40.80
2024-05-09T09:26:20.656Z,50.62
2024-05-09T09:27:20.659Z,52.05
2024-05-09T09:28:20.694Z,53.91
2024-05-09T09:29:20.658Z,50.00
2024-05-09T09:30:31.845Z,51.28
2024-05-09T09:31:21.746Z,51.36
2024-05-09T09:32:20.728Z,47.89
2024-05-09T09:33:20.800Z,49.83
2024-05-09T09:34:20.721Z,49.93
2024-05-09T09:35:20.665Z,49.07
2024-05-09T09:36:20.675Z,51.96
2024-05-09T09:37:20.716Z,50.68
2024-05-09T09:38:20.688Z,52.35
2024-05-09T09:39:20.695Z,51.84
2024-05-09T09:40:22.231Z,52.05
2024-05-09T09:41:20.738Z,50.98
2024-05-09T09:42:20.809Z,52.71
2024-05-09T09:43:21.164Z,52.66
2024-05-09T09:44:20.915Z,53.46
2024-05-09T09:45:20.932Z,53.88
2024-05-09T09:46:21.105Z,54.51
2024-05-09T09:47:21.099Z,57.93
2024-05-09T09:48:21.199Z,58.95
2024-05-09T09:49:21.178Z,57.57
2024-05-09T09:50:27.663Z,59.34
2024-05-09T09:51:22.125Z,59.41
2024-05-09T09:52:21.175Z,56.61
2024-05-09T09:53:21.111Z,55.31
2024-05-09T09:54:21.118Z,52.13
2024-05-09T09:55:21.231Z,51.64
2024-05-09T09:56:21.110Z,53.91
2024-05-09T09:57:21.126Z,52.62
2024-05-09T09:58:21.299Z,50.00
2024-05-09T09:59:21.122Z,50.00
2024-05-09T10:00:27.063Z,51.04
2024-05-09T10:01:22.240Z,51.09
2024-05-09T10:02:21.341Z,48.23
2024-05-09T10:03:21.297Z,45.39
2024-05-09T10:04:21.254Z,45.40
2024-05-09T10:05:21.402Z,41.68
2024-05-09T10:06:21.175Z,52.94
2024-05-09T10:07:21.194Z,51.66
2024-05-09T10:08:21.179Z,50.68
2024-05-09T10:09:21.186Z,50.00
2024-05-09T10:10:27.339Z,50.00
2024-05-09T10:11:22.348Z,49.93
2024-05-09T10:12:21.224Z,44.74
2024-05-09T10:13:21.366Z,44.66
2024-05-09T10:14:21.196Z,42.41
2024-05-09T10:15:21.262Z,39.77
2024-05-09T10:16:21.384Z,50.00
2024-05-09T10:17:21.212Z,50.43
2024-05-09T10:18:21.311Z,51.00
2024-05-09T10:19:21.221Z,50.50
2024-05-09T10:20:25.075Z,50.98
2024-05-09T10:21:22.204Z,51.01
2024-05-09T10:22:21.245Z,50.18
2024-05-09T10:23:21.206Z,48.92
2024-05-09T10:24:21.206Z,49.30
2024-05-09T10:25:21.395Z,47.46
2024-05-09T10:26:21.201Z,50.99
2024-05-09T10:27:21.201Z,51.46
2024-05-09T10:28:21.255Z,53.05
2024-05-09T10:29:21.203Z,50.61
2024-05-09T10:30:26.147Z,51.99
2024-05-09T10:31:22.246Z,52.06
2024-05-09T10:32:21.317Z,52.43
2024-05-09T10:33:21.273Z,52.43
2024-05-09T10:34:21.333Z,52.80
2024-05-09T10:35:21.274Z,49.63
2024-05-09T10:36:21.230Z,51.41
2024-05-09T10:37:21.249Z,51.95
2024-05-09T10:38:21.225Z,51.38
2024-05-09T10:39:21.217Z,51.58
2024-05-09T10:40:26.332Z,50.81
2024-05-09T10:41:22.249Z,50.81
2024-05-09T10:42:21.218Z,50.18
2024-05-09T10:43:21.343Z,47.27
2024-05-09T10:44:21.288Z,47.08
2024-05-09T10:45:21.290Z,43.42
2024-05-09T10:46:21.487Z,50.00
2024-05-09T10:47:21.274Z,50.45
2024-05-09T10:48:21.352Z,50.58
2024-05-09T10:49:21.287Z,50.00
2024-05-09T10:50:28.130Z,52.39
2024-05-09T10:51:22.235Z,52.39
2024-05-09T10:52:21.299Z,50.68
2024-05-09T10:53:21.276Z,45.23
2024-05-09T10:54:21.241Z,44.83
2024-05-09T10:55:21.542Z,46.97
2024-05-09T10:56:21.250Z,50.21
2024-05-09T10:57:21.261Z,53.32
2024-05-09T10:58:21.337Z,52.49
2024-05-09T10:59:21.248Z,51.08
2024-05-09T11:00:27.679Z,51.16
2024-05-09T11:01:22.313Z,51.25
2024-05-09T11:02:21.440Z,51.39
2024-05-09T11:03:21.305Z,51.67
2024-05-09T11:04:21.391Z,49.56
2024-05-09T11:05:21.470Z,46.88
2024-05-09T11:06:21.266Z,50.30
2024-05-09T11:07:21.403Z,51.92
2024-05-09T11:08:21.266Z,50.00
2024-05-09T11:09:21.293Z,52.70
2024-05-09T11:10:27.579Z,52.25
2024-05-09T11:11:22.310Z,52.13
2024-05-09T11:12:22.834Z,49.98
2024-05-09T11:13:21.310Z,48.50
2024-05-09T11:14:21.286Z,44.66
2024-05-09T11:15:21.307Z,44.37
2024-05-09T11:16:21.634Z,49.08
2024-05-09T11:17:21.435Z,50.00
2024-05-09T11:18:24.215Z,51.22
2024-05-09T11:19:21.438Z,51.24
2024-05-09T11:20:26.952Z,49.02
2024-05-09T11:21:22.301Z,50.30
2024-05-09T11:22:21.360Z,48.68
2024-05-09T11:23:21.314Z,46.08
2024-05-09T11:24:21.314Z,45.09
2024-05-09T11:25:21.321Z,43.14
2024-05-09T11:26:21.312Z,51.49
2024-05-09T11:27:21.309Z,51.18
2024-05-09T11:28:21.341Z,54.02
2024-05-09T11:29:21.314Z,51.74
2024-05-09T11:30:27.014Z,51.33
2024-05-09T11:31:22.523Z,51.35
2024-05-09T11:32:21.332Z,50.96
2024-05-09T11:33:21.347Z,49.79
2024-05-09T11:34:21.388Z,47.64
2024-05-09T11:35:21.331Z,45.52
2024-05-09T11:36:21.340Z,50.00
2024-05-09T11:37:21.497Z,50.88
2024-05-09T11:38:21.332Z,50.35
2024-05-09T11:39:21.338Z,51.35
2024-05-09T11:40:25.627Z,50.76
2024-05-09T11:41:22.353Z,50.83
2024-05-09T11:42:21.363Z,48.74
2024-05-09T11:43:21.434Z,44.00
2024-05-09T11:44:21.346Z,41.85
2024-05-09T11:45:21.381Z,40.84
2024-05-09T11:46:21.531Z,51.14
2024-05-09T11:47:21.414Z,51.62
2024-05-09T11:48:21.548Z,50.78
2024-05-09T11:49:23.124Z,51.13
2024-05-09T11:50:27.122Z,52.73
2024-05-09T11:51:22.362Z,52.80
2024-05-09T11:52:21.404Z,51.19
2024-05-09T11:53:21.384Z,50.56
2024-05-09T11:54:21.352Z,47.74
2024-05-09T11:55:23.212Z,49.17
2024-05-09T11:56:21.360Z,51.46
2024-05-09T11:57:21.359Z,51.14
2024-05-09T11:58:21.578Z,50.41
2024-05-09T11:59:21.363Z,52.83
2024-05-09T12:00:29.484Z,51.58
2024-05-09T12:01:23.699Z,51.63
2024-05-09T12:02:21.449Z,51.69
2024-05-09T12:03:21.455Z,51.65
2024-05-09T12:04:21.585Z,49.83
2024-05-09T12:05:21.530Z,48.76
2024-05-09T12:06:21.375Z,47.83
2024-05-09T12:07:21.487Z,51.91
2024-05-09T12:08:21.384Z,52.23
2024-05-09T12:09:21.377Z,53.44
2024-05-09T12:10:26.090Z,52.65
2024-05-09T12:11:22.526Z,52.45
2024-05-09T12:12:21.391Z,50.09
2024-05-09T12:13:21.616Z,48.86
2024-05-09T12:14:21.386Z,49.31
2024-05-09T12:15:21.397Z,48.60
2024-05-09T12:16:21.653Z,50.95
2024-05-09T12:17:21.456Z,52.17
2024-05-09T12:18:21.434Z,52.06
2024-05-09T12:19:21.482Z,51.90
2024-05-09T12:20:28.680Z,50.46
2024-05-09T12:21:22.397Z,50.63
2024-05-09T12:22:21.447Z,50.79
2024-05-09T12:23:21.404Z,50.52
2024-05-09T12:24:21.402Z,50.33
2024-05-09T12:25:21.457Z,48.17
2024-05-09T12:26:21.404Z,50.49
2024-05-09T12:27:21.407Z,50.06
2024-05-09T12:28:21.574Z,51.10
2024-05-09T12:29:21.410Z,51.36
2024-05-09T12:30:32.414Z,52.35
2024-05-09T12:31:22.482Z,52.35
2024-05-09T12:32:21.504Z,50.71
2024-05-09T12:33:21.642Z,50.39
2024-05-09T12:34:21.483Z,49.56
2024-05-09T12:35:21.421Z,50.67
2024-05-09T12:36:21.438Z,51.28
2024-05-09T12:37:21.491Z,53.94
2024-05-09T12:38:21.452Z,53.48
2024-05-09T12:39:21.435Z,52.61
2024-05-09T12:40:30.709Z,53.92
2024-05-09T12:41:22.441Z,53.98
2024-05-09T12:42:27.243Z,54.07
2024-05-09T12:43:22.779Z,54.05
2024-05-09T12:44:21.444Z,53.69
2024-05-09T12:45:21.540Z,54.38
2024-05-09T12:46:21.601Z,55.13
2024-05-09T12:47:21.517Z,55.92
2024-05-09T12:48:21.578Z,56.15
2024-05-09T12:49:21.705Z,56.56
2024-05-09T12:50:29.206Z,58.23
2024-05-09T12:51:22.480Z,57.17
2024-05-09T12:52:21.486Z,54.79
2024-05-09T12:53:21.490Z,55.42
2024-05-09T12:54:21.488Z,57.61
2024-05-09T12:55:21.522Z,58.03
2024-05-09T12:56:21.474Z,59.20
2024-05-09T12:57:21.473Z,59.82
2024-05-09T12:58:21.523Z,68.05